createdAt,value
2019-01-17T00:00:46.214Z,17.00
2019-01-17T00:01:46.175Z,12.80
2019-01-17T00:02:46.213Z,13.50
2019-01-17T00:03:46.111Z,15.70
2019-01-17T00:04:46.124Z,14.10
2019-01-17T00:05:46.052Z,15.30
2019-01-17T00:06:46.021Z,16.70
2019-01-17T00:07:45.995Z,14.40
2019-01-17T00:08:46.042Z,14.70
2019-01-17T00:09:45.943Z,14.80
2019-01-17T00:10:45.952Z,14.40
2019-01-17T00:11:45.884Z,12.90
2019-01-17T00:12:45.858Z,13.80
2019-01-17T00:13:45.864Z,18.50
2019-01-17T00:14:45.794Z,13.50
2019-01-17T00:15:45.784Z,14.00
2019-01-17T00:16:45.731Z,15.10
2019-01-17T00:17:45.703Z,15.20
2019-01-17T00:18:45.673Z,14.80
2019-01-17T00:19:45.702Z,13.00
2019-01-17T00:20:45.614Z,15.50
2019-01-17T00:21:45.614Z,13.90
2019-01-17T00:22:45.551Z,14.70
2019-01-17T00:23:45.525Z,12.10
2019-01-17T00:24:45.528Z,13.40
2019-01-17T00:25:45.464Z,13.50
2019-01-17T00:26:45.542Z,14.80
2019-01-17T00:27:45.403Z,13.30
2019-01-17T00:28:45.374Z,15.50
2019-01-17T00:29:45.344Z,14.10
2019-01-17T00:30:45.364Z,12.10
2019-01-17T00:31:45.284Z,12.40
2019-01-17T00:32:45.281Z,12.00
2019-01-17T00:33:45.223Z,13.40
2019-01-17T00:34:45.197Z,12.50
2019-01-17T00:35:45.183Z,11.60
2019-01-17T00:36:45.134Z,11.40
2019-01-17T00:37:45.213Z,11.70
2019-01-17T00:38:45.073Z,10.50
2019-01-17T00:39:45.048Z,12.50
2019-01-17T00:40:45.046Z,10.80
2019-01-17T00:41:45.033Z,10.60
2019-01-17T00:42:44.957Z,10.90
2019-01-17T00:43:45.032Z,11.90
2019-01-17T00:44:44.893Z,10.90
2019-01-17T00:45:44.862Z,12.70
2019-01-17T00:46:44.856Z,10.30
2019-01-17T00:47:44.809Z,11.40
2019-01-17T00:48:44.862Z,11.20
2019-01-17T00:49:44.757Z,11.40
2019-01-17T00:50:44.717Z,10.50
2019-01-17T00:51:44.689Z,10.40
2019-01-17T00:52:44.688Z,10.50
2019-01-17T00:53:44.625Z,11.20
2019-01-17T00:54:44.692Z,10.60
2019-01-17T00:55:44.586Z,10.40
2019-01-17T00:56:44.534Z,10.20
2019-01-17T00:57:44.621Z,10.20
2019-01-17T00:58:44.473Z,10.60
2019-01-17T00:59:44.517Z,10.30
2019-01-17T01:00:44.428Z,10.60
2019-01-17T01:01:44.384Z,10.90
2019-01-17T01:02:44.356Z,12.90
2019-01-17T01:03:44.462Z,10.00
2019-01-17T01:04:44.301Z,10.20
2019-01-17T01:05:44.394Z,10.40
2019-01-17T01:06:44.243Z,11.00
2019-01-17T01:07:44.207Z,9.80
2019-01-17T01:08:44.188Z,10.60
2019-01-17T01:09:44.285Z,10.40
2019-01-17T01:10:44.113Z,10.20
2019-01-17T01:11:44.184Z,10.50
2019-01-17T01:12:44.054Z,10.70
2019-01-17T01:13:44.108Z,10.30
2019-01-17T01:14:44.017Z,9.80
2019-01-17T01:15:44.023Z,10.70
2019-01-17T01:16:43.944Z,11.60
2019-01-17T01:17:44.013Z,10.10
2019-01-17T01:18:43.887Z,10.60
2019-01-17T01:19:43.947Z,10.90
2019-01-17T01:20:43.824Z,10.10
2019-01-17T01:21:43.857Z,10.70
2019-01-17T01:22:43.774Z,10.30
2019-01-17T01:23:43.735Z,10.60
2019-01-17T01:24:43.702Z,10.20
2019-01-17T01:25:43.768Z,10.50
2019-01-17T01:26:43.643Z,10.10
2019-01-17T01:27:43.675Z,10.80
2019-01-17T01:28:43.598Z,10.20
2019-01-17T01:29:43.554Z,11.50
2019-01-17T01:30:43.523Z,10.20
2019-01-17T01:31:43.592Z,10.50
2019-01-17T01:32:43.473Z,10.70
2019-01-17T01:33:43.504Z,10.20
2019-01-17T01:34:43.414Z,10.60
2019-01-17T01:35:43.413Z,10.20
2019-01-17T01:36:43.343Z,10.60
2019-01-17T01:37:43.423Z,11.40
2019-01-17T01:38:43.285Z,11.10
2019-01-17T01:39:43.334Z,11.70
2019-01-17T01:40:43.224Z,11.30
2019-01-17T01:41:43.253Z,10.90
2019-01-17T01:42:43.176Z,11.90
2019-01-17T01:43:43.156Z,11.40
2019-01-17T01:44:43.108Z,11.10
2019-01-17T01:45:43.073Z,11.60
2019-01-17T01:46:43.046Z,10.80
2019-01-17T01:47:44.101Z,11.00
2019-01-17T01:48:42.995Z,11.40
2019-01-17T01:49:42.994Z,10.70
2019-01-17T01:50:42.927Z,11.30
2019-01-17T01:51:42.905Z,11.40
2019-01-17T01:52:42.906Z,11.00
2019-01-17T01:53:42.858Z,11.70
2019-01-17T01:54:42.934Z,11.40
2019-01-17T01:55:42.788Z,10.90
2019-01-17T01:56:42.837Z,11.20
2019-01-17T01:57:42.715Z,11.90
2019-01-17T01:58:42.747Z,11.40
2019-01-17T01:59:42.665Z,11.40
2019-01-17T02:00:42.916Z,10.60
2019-01-17T02:01:42.603Z,11.30
2019-01-17T02:02:42.576Z,11.30
2019-01-17T02:03:42.563Z,11.20
2019-01-17T02:04:42.517Z,11.50
2019-01-17T02:05:42.597Z,11.60
2019-01-17T02:06:42.456Z,11.30
2019-01-17T02:07:42.504Z,11.50
2019-01-17T02:08:42.394Z,11.50
2019-01-17T02:09:42.396Z,11.70
2019-01-17T02:10:42.345Z,11.10
2019-01-17T02:11:42.413Z,11.50
2019-01-17T02:12:42.275Z,11.00
2019-01-17T02:13:42.255Z,11.30
2019-01-17T02:14:42.214Z,11.50
2019-01-17T02:15:42.234Z,12.10
2019-01-17T02:16:42.165Z,11.50
2019-01-17T02:17:42.245Z,12.00
2019-01-17T02:18:42.104Z,11.30
2019-01-17T02:19:42.167Z,11.40
2019-01-17T02:20:42.042Z,11.10
2019-01-17T02:21:42.066Z,11.30
2019-01-17T02:22:41.983Z,11.60
2019-01-17T02:23:41.976Z,11.80
2019-01-17T02:24:41.926Z,11.30
2019-01-17T02:25:41.994Z,11.70
2019-01-17T02:26:42.479Z,12.10
2019-01-17T02:27:41.895Z,12.00
2019-01-17T02:28:41.807Z,12.70
2019-01-17T02:29:41.805Z,13.50
2019-01-17T02:30:41.756Z,12.40
2019-01-17T02:31:41.829Z,12.10
2019-01-17T02:32:41.695Z,12.50
2019-01-17T02:33:41.740Z,12.30
2019-01-17T02:34:41.634Z,12.90
2019-01-17T02:35:41.605Z,12.90
2019-01-17T02:36:41.574Z,12.40
2019-01-17T02:37:41.653Z,13.50
2019-01-17T02:38:41.516Z,14.10
2019-01-17T02:39:41.563Z,13.30
2019-01-17T02:40:41.455Z,13.80
2019-01-17T02:41:41.486Z,13.00
2019-01-17T02:42:41.405Z,13.80
2019-01-17T02:43:41.390Z,13.70
2019-01-17T02:44:41.332Z,13.20
2019-01-17T02:45:41.410Z,13.50
2019-01-17T02:46:41.303Z,14.10
2019-01-17T02:47:41.256Z,15.10
2019-01-17T02:48:41.314Z,14.50
2019-01-17T02:49:41.199Z,14.00
2019-01-17T02:50:41.225Z,14.90
2019-01-17T02:51:41.135Z,14.70
2019-01-17T02:52:41.134Z,14.40
2019-01-17T02:53:41.074Z,14.80
2019-01-17T02:54:41.143Z,14.10
2019-01-17T02:55:41.015Z,14.30
2019-01-17T02:56:41.053Z,14.60
2019-01-17T02:57:40.954Z,14.10
2019-01-17T02:58:40.943Z,15.30
2019-01-17T02:59:40.977Z,14.70
2019-01-17T03:00:40.871Z,15.40
2019-01-17T03:01:40.889Z,15.40
2019-01-17T03:02:40.807Z,15.10
2019-01-17T03:03:40.906Z,14.80
2019-01-17T03:04:40.754Z,15.50
2019-01-17T03:05:40.841Z,15.40
2019-01-17T03:06:40.700Z,15.90
2019-01-17T03:07:40.713Z,15.20
2019-01-17T03:08:40.726Z,14.90
2019-01-17T03:09:40.619Z,15.40
2019-01-17T03:10:40.641Z,15.40
2019-01-17T03:11:40.544Z,16.20
2019-01-17T03:12:40.543Z,15.40
2019-01-17T03:13:40.485Z,15.50
2019-01-17T03:14:40.454Z,15.50
2019-01-17T03:15:40.456Z,16.00
2019-01-17T03:16:40.415Z,15.90
2019-01-17T03:17:40.479Z,16.30
2019-01-17T03:18:40.348Z,16.70
2019-01-17T03:19:40.316Z,16.90
2019-01-17T03:20:40.288Z,16.40
2019-01-17T03:21:40.292Z,16.10
2019-01-17T03:22:40.222Z,16.00
2019-01-17T03:23:40.313Z,16.40
2019-01-17T03:24:43.134Z,16.70
2019-01-17T03:25:40.132Z,16.40
2019-01-17T03:26:40.111Z,16.70
2019-01-17T03:27:40.079Z,16.80
2019-01-17T03:28:40.135Z,16.80
2019-01-17T03:29:40.026Z,16.90
2019-01-17T03:30:39.995Z,17.60
2019-01-17T03:31:39.980Z,17.10
2019-01-17T03:32:39.953Z,16.60
2019-01-17T03:33:39.905Z,17.60
2019-01-17T03:34:39.966Z,16.80
2019-01-17T03:35:39.851Z,16.80
2019-01-17T03:36:39.823Z,16.90
2019-01-17T03:37:40.804Z,17.50
2019-01-17T03:38:39.763Z,17.20
2019-01-17T03:39:39.817Z,17.00
2019-01-17T03:40:39.694Z,18.50
2019-01-17T03:41:39.675Z,17.10
2019-01-17T03:42:39.635Z,17.60
2019-01-17T03:43:39.716Z,17.50
2019-01-17T03:44:39.583Z,16.70
2019-01-17T03:45:39.629Z,17.60
2019-01-17T03:46:39.528Z,18.20
2019-01-17T03:47:39.496Z,18.10
2019-01-17T03:48:39.547Z,17.90
2019-01-17T03:49:39.451Z,17.40
2019-01-17T03:50:39.456Z,17.20
2019-01-17T03:51:39.375Z,17.80
2019-01-17T03:52:39.344Z,18.50
2019-01-17T03:53:39.326Z,17.60
2019-01-17T03:54:39.373Z,17.40
2019-01-17T03:55:39.276Z,18.00
2019-01-17T03:56:39.286Z,18.00
2019-01-17T03:57:39.207Z,18.60
2019-01-17T03:58:39.172Z,18.10
2019-01-17T03:59:39.243Z,18.90
2019-01-17T04:00:39.125Z,18.00
2019-01-17T04:01:39.103Z,19.50
2019-01-17T04:02:39.068Z,18.20
2019-01-17T04:03:39.024Z,18.20
2019-01-17T04:04:39.004Z,19.70
2019-01-17T04:05:39.034Z,19.60
2019-01-17T04:06:38.933Z,20.10
2019-01-17T04:07:38.958Z,19.20
2019-01-17T04:08:38.875Z,20.50
2019-01-17T04:09:38.844Z,19.80
2019-01-17T04:10:38.865Z,19.40
2019-01-17T04:11:38.786Z,18.90
2019-01-17T04:12:38.873Z,19.60
2019-01-17T04:13:38.735Z,19.40
2019-01-17T04:14:38.704Z,20.40
2019-01-17T04:15:38.684Z,19.70
2019-01-17T04:16:38.712Z,19.00
2019-01-17T04:17:38.627Z,19.80
2019-01-17T04:18:38.611Z,19.60
2019-01-17T04:19:38.566Z,19.90
2019-01-17T04:20:38.537Z,18.50
2019-01-17T04:21:38.525Z,19.90
2019-01-17T04:22:38.474Z,19.40
2019-01-17T04:23:38.533Z,19.10
2019-01-17T04:24:38.413Z,19.30
2019-01-17T04:25:38.397Z,19.30
2019-01-17T04:26:38.363Z,19.40
2019-01-17T04:27:38.354Z,19.10
2019-01-17T04:28:38.298Z,18.90
2019-01-17T04:29:38.364Z,19.80
2019-01-17T04:30:38.232Z,18.30
2019-01-17T04:31:38.204Z,19.70
2019-01-17T04:32:38.174Z,18.80
2019-01-17T04:33:38.196Z,18.40
2019-01-17T04:34:38.123Z,18.10
2019-01-17T04:35:38.208Z,18.60
2019-01-17T04:36:38.104Z,18.90
2019-01-17T04:37:38.025Z,20.10
2019-01-17T04:38:38.125Z,19.30
2019-01-17T04:39:37.979Z,18.80
2019-01-17T04:40:38.023Z,18.60
2019-01-17T04:41:37.920Z,18.70
2019-01-17T04:42:37.884Z,18.40
2019-01-17T04:43:37.934Z,18.80
2019-01-17T04:44:37.830Z,18.60
2019-01-17T04:45:37.854Z,18.90
2019-01-17T04:46:37.765Z,18.70
2019-01-17T04:47:37.740Z,18.90
2019-01-17T04:48:37.719Z,18.90
2019-01-17T04:49:37.777Z,18.40
2019-01-17T04:50:37.648Z,18.40
2019-01-17T04:51:37.688Z,19.40
2019-01-17T04:52:37.594Z,19.90
2019-01-17T04:53:37.556Z,18.60
2019-01-17T04:54:38.501Z,18.70
2019-01-17T04:55:37.512Z,18.40
2019-01-17T04:56:37.516Z,19.10
2019-01-17T04:57:37.457Z,18.70
2019-01-17T04:58:37.425Z,18.90
2019-01-17T04:59:37.390Z,18.90
2019-01-17T05:00:37.449Z,19.00
2019-01-17T05:01:37.326Z,19.20
2019-01-17T05:02:37.353Z,19.30
2019-01-17T05:03:37.274Z,19.80
2019-01-17T05:04:37.234Z,18.50
2019-01-17T05:05:37.265Z,19.50
2019-01-17T05:06:37.189Z,19.00
2019-01-17T05:07:37.167Z,19.10
2019-01-17T05:08:37.141Z,17.90
2019-01-17T05:09:37.108Z,18.80
2019-01-17T05:10:37.066Z,19.90
2019-01-17T05:11:37.110Z,19.00
2019-01-17T05:12:37.007Z,18.50
2019-01-17T05:13:37.030Z,19.40
2019-01-17T05:14:36.955Z,18.40
2019-01-17T05:15:36.932Z,18.60
2019-01-17T05:16:36.922Z,18.90
2019-01-17T05:17:36.896Z,19.00
2019-01-17T05:18:36.946Z,18.70
2019-01-17T05:19:36.814Z,18.70
2019-01-17T05:20:36.776Z,19.10
2019-01-17T05:21:36.746Z,18.10
2019-01-17T05:22:36.749Z,19.20
2019-01-17T05:23:36.682Z,18.90
2019-01-17T05:24:36.766Z,19.60
2019-01-17T05:25:36.623Z,19.80
2019-01-17T05:26:36.605Z,19.30
2019-01-17T05:27:36.675Z,20.00
2019-01-17T05:28:36.547Z,19.20
2019-01-17T05:29:36.588Z,19.50
2019-01-17T05:30:36.486Z,19.30
2019-01-17T05:31:36.454Z,19.20
2019-01-17T05:32:36.821Z,18.80
2019-01-17T05:33:36.408Z,19.50
2019-01-17T05:34:39.667Z,19.10
2019-01-17T05:35:36.425Z,19.40
2019-01-17T05:36:36.304Z,19.10
2019-01-17T05:37:36.282Z,19.10
2019-01-17T05:38:36.256Z,19.70
2019-01-17T05:39:36.244Z,18.90
2019-01-17T05:40:36.187Z,19.60
2019-01-17T05:41:36.252Z,19.50
2019-01-17T05:42:36.126Z,19.90
2019-01-17T05:43:36.167Z,19.30
2019-01-17T05:44:36.076Z,19.10
2019-01-17T05:45:36.075Z,19.40
2019-01-17T05:46:36.016Z,20.50
2019-01-17T05:47:36.084Z,21.60
2019-01-17T05:48:35.955Z,18.70
2019-01-17T05:49:35.927Z,18.90
2019-01-17T05:50:36.004Z,19.30
2019-01-17T05:51:35.863Z,19.90
2019-01-17T05:52:35.914Z,19.60
2019-01-17T05:53:35.814Z,19.30
2019-01-17T05:54:35.825Z,19.90
2019-01-17T05:55:35.756Z,19.80
2019-01-17T05:56:35.737Z,20.00
2019-01-17T05:57:35.683Z,20.00
2019-01-17T05:58:35.748Z,20.50
2019-01-17T05:59:35.666Z,21.10
2019-01-17T06:00:35.605Z,19.50
2019-01-17T06:01:35.665Z,20.50
2019-01-17T06:02:35.542Z,21.20
2019-01-17T06:03:35.575Z,19.90
2019-01-17T06:04:35.495Z,20.20
2019-01-17T06:05:35.484Z,19.90
2019-01-17T06:06:35.433Z,19.70
2019-01-17T06:07:35.495Z,20.10
2019-01-17T06:08:35.375Z,19.80
2019-01-17T06:09:35.407Z,21.60
2019-01-17T06:10:35.319Z,20.30
2019-01-17T06:11:35.317Z,19.10
2019-01-17T06:12:35.252Z,21.20
2019-01-17T06:13:35.343Z,20.30
2019-01-17T06:14:35.195Z,19.80
2019-01-17T06:15:35.241Z,20.30
2019-01-17T06:16:35.150Z,20.50
2019-01-17T06:17:35.159Z,19.90
2019-01-17T06:18:35.085Z,20.30
2019-01-17T06:19:35.055Z,19.00
2019-01-17T06:20:35.016Z,19.00
2019-01-17T06:21:34.984Z,20.40
2019-01-17T06:22:35.075Z,19.70
2019-01-17T06:23:34.924Z,19.00
2019-01-17T06:24:34.996Z,18.80
2019-01-17T06:25:34.877Z,18.70
2019-01-17T06:26:34.834Z,18.70
2019-01-17T06:27:34.820Z,19.30
2019-01-17T06:28:34.805Z,18.90
2019-01-17T06:29:34.743Z,18.20
2019-01-17T06:30:34.839Z,17.70
2019-01-17T06:31:34.684Z,18.70
2019-01-17T06:32:34.665Z,18.00
2019-01-17T06:33:34.634Z,17.70
2019-01-17T06:34:34.643Z,17.50
2019-01-17T06:35:34.573Z,16.20
2019-01-17T06:36:34.656Z,17.50
2019-01-17T06:37:35.328Z,17.10
2019-01-17T06:38:34.567Z,17.70
2019-01-17T06:39:34.456Z,16.50
2019-01-17T06:40:34.473Z,17.80
2019-01-17T06:41:34.410Z,16.20
2019-01-17T06:42:34.383Z,16.40
2019-01-17T06:43:34.333Z,16.10
2019-01-17T06:44:34.395Z,16.00
2019-01-17T06:45:34.275Z,15.70
2019-01-17T06:46:34.304Z,15.40
2019-01-17T06:47:34.214Z,16.20
2019-01-17T06:48:34.187Z,14.50
2019-01-17T06:49:34.153Z,17.80
2019-01-17T06:50:34.234Z,16.00
2019-01-17T06:51:34.105Z,16.10
2019-01-17T06:52:34.141Z,15.50
2019-01-17T06:53:34.068Z,16.10
2019-01-17T06:54:34.023Z,15.60
2019-01-17T06:55:34.565Z,16.60
2019-01-17T06:56:33.966Z,15.90
2019-01-17T06:57:33.964Z,16.70
2019-01-17T06:58:33.894Z,15.30
2019-01-17T06:59:33.875Z,15.90
2019-01-17T07:00:33.834Z,14.90
2019-01-17T07:01:33.894Z,15.90
2019-01-17T07:02:33.775Z,16.70
2019-01-17T07:03:33.806Z,15.60
2019-01-17T07:04:33.713Z,16.70
2019-01-17T07:05:33.697Z,16.00
2019-01-17T07:06:33.655Z,15.80
2019-01-17T07:07:33.723Z,19.20
2019-01-17T07:08:33.595Z,15.80
2019-01-17T07:09:33.633Z,16.20
2019-01-17T07:10:33.534Z,16.00
2019-01-17T07:11:33.553Z,16.70
2019-01-17T07:12:33.495Z,15.90
2019-01-17T07:13:33.556Z,17.30
2019-01-17T07:14:33.416Z,17.10
2019-01-17T07:15:33.476Z,16.60
2019-01-17T07:16:33.365Z,18.40
2019-01-17T07:17:33.385Z,15.90
2019-01-17T07:18:33.304Z,17.00
2019-01-17T07:19:33.294Z,17.20
2019-01-17T07:20:33.243Z,17.90
2019-01-17T07:21:33.236Z,18.30
2019-01-17T07:22:33.192Z,17.80
2019-01-17T07:23:33.212Z,17.40
2019-01-17T07:24:33.134Z,17.70
2019-01-17T07:25:33.138Z,18.30
2019-01-17T07:26:33.068Z,18.20
2019-01-17T07:27:33.044Z,16.00
2019-01-17T07:28:33.006Z,16.30
2019-01-17T07:29:33.046Z,17.70
2019-01-17T07:30:32.949Z,17.40
2019-01-17T07:31:32.957Z,18.10
2019-01-17T07:32:32.951Z,15.50
2019-01-17T07:33:32.962Z,16.10
2019-01-17T07:34:32.840Z,16.90
2019-01-17T07:35:32.886Z,16.90
2019-01-17T07:36:32.764Z,15.60
2019-01-17T07:37:32.785Z,16.10
2019-01-17T07:38:32.714Z,16.80
2019-01-17T07:39:32.694Z,17.10
2019-01-17T07:40:32.667Z,16.00
2019-01-17T07:41:32.717Z,16.10
2019-01-17T07:42:32.593Z,17.10
2019-01-17T07:43:32.557Z,16.60
2019-01-17T07:44:32.534Z,15.40
2019-01-17T07:45:32.531Z,16.40
2019-01-17T07:46:32.484Z,17.00
2019-01-17T07:47:32.545Z,16.90
2019-01-17T07:48:32.414Z,17.10
2019-01-17T07:49:32.401Z,16.10
2019-01-17T07:50:32.358Z,17.30
2019-01-17T07:51:32.376Z,15.50
2019-01-17T07:52:32.304Z,17.90
2019-01-17T07:53:32.379Z,16.70
2019-01-17T07:54:32.232Z,17.00
2019-01-17T07:55:32.291Z,17.90
2019-01-17T07:56:32.176Z,19.10
2019-01-17T07:57:32.200Z,18.00
2019-01-17T07:58:32.119Z,17.60
2019-01-17T07:59:32.113Z,19.00
2019-01-17T08:00:32.066Z,18.20
2019-01-17T08:01:32.113Z,18.40
2019-01-17T08:02:32.001Z,18.10
2019-01-17T08:03:32.024Z,18.80
2019-01-17T08:04:31.942Z,20.10
2019-01-17T08:05:31.915Z,19.50
2019-01-17T08:06:31.883Z,18.30
2019-01-17T08:07:31.941Z,20.10
2019-01-17T08:08:31.828Z,19.90
2019-01-17T08:09:31.875Z,19.80
2019-01-17T08:10:31.761Z,20.50
2019-01-17T08:11:31.744Z,20.30
2019-01-17T08:12:31.772Z,19.30
2019-01-17T08:13:31.675Z,21.60
2019-01-17T08:14:31.694Z,20.60
2019-01-17T08:15:31.620Z,19.60
2019-01-17T08:16:31.830Z,20.70
2019-01-17T08:17:31.552Z,19.50
2019-01-17T08:18:31.779Z,18.80
2019-01-17T08:19:31.492Z,19.90
2019-01-17T08:20:31.521Z,19.50
2019-01-17T08:21:31.442Z,20.60
2019-01-17T08:22:31.403Z,20.90
2019-01-17T08:23:34.779Z,21.50
2019-01-17T08:24:31.343Z,20.00
2019-01-17T08:25:31.340Z,18.50
2019-01-17T08:26:38.593Z,20.10
2019-01-17T08:28:35.321Z,18.00
2019-01-17T08:29:35.222Z,18.10
2019-01-17T08:31:39.231Z,18.40
2019-01-17T08:32:39.132Z,17.70
2019-01-17T08:34:43.143Z,17.20
2019-01-17T08:35:43.042Z,18.70
2019-01-17T08:37:47.040Z,17.40
2019-01-17T08:38:46.951Z,18.10
2019-01-17T08:40:50.965Z,16.10
2019-01-17T08:41:50.862Z,15.60
2019-01-17T08:43:54.811Z,13.10
2019-01-17T08:44:54.763Z,11.10
2019-01-17T08:46:58.782Z,9.90
2019-01-17T08:47:58.684Z,10.50
2019-01-17T08:50:02.691Z,11.30
2019-01-17T08:51:02.583Z,9.80
2019-01-17T08:52:55.540Z,10.10
2019-01-17T08:53:55.441Z,8.50
2019-01-17T08:56:00.823Z,10.40
2019-01-17T08:56:59.350Z,10.30
2019-01-17T08:59:03.371Z,9.00
2019-01-17T09:00:03.321Z,8.60
2019-01-17T09:02:07.281Z,8.50
2019-01-17T09:03:07.175Z,9.30
2019-01-17T09:05:11.179Z,7.60
2019-01-17T09:06:11.079Z,10.20
2019-01-17T09:08:15.089Z,8.10
2019-01-17T09:09:14.991Z,8.00
2019-01-17T09:11:18.999Z,6.90
2019-01-17T09:12:18.901Z,7.50
2019-01-17T09:14:22.914Z,7.40
2019-01-17T09:15:22.809Z,11.50
2019-01-17T09:17:26.821Z,7.00
2019-01-17T09:18:26.719Z,7.20
2019-01-17T09:20:30.729Z,8.90
2019-01-17T09:21:30.642Z,8.20
2019-01-17T09:23:24.091Z,8.00
2019-01-17T09:24:23.991Z,7.70
2019-01-17T09:26:28.002Z,9.40
2019-01-17T09:27:27.969Z,7.50
2019-01-17T09:29:31.923Z,6.00
2019-01-17T09:30:31.813Z,8.40
2019-01-17T09:32:35.761Z,8.70
2019-01-17T09:33:35.721Z,6.90
2019-01-17T09:35:39.734Z,8.40
2019-01-17T09:36:39.631Z,5.80
2019-01-17T09:38:43.640Z,7.20
2019-01-17T09:39:43.540Z,6.90
2019-01-17T09:41:47.550Z,6.80
2019-01-17T09:42:47.454Z,7.70
2019-01-17T09:44:51.460Z,7.30
2019-01-17T09:45:51.360Z,6.20
2019-01-17T09:47:55.381Z,5.90
2019-01-17T09:48:55.270Z,7.00
2019-01-17T09:51:00.211Z,6.60
2019-01-17T09:52:00.100Z,5.90
2019-01-17T09:54:04.049Z,6.30
2019-01-17T09:55:04.023Z,6.70
2019-01-17T09:57:08.031Z,6.30
2019-01-17T09:58:07.920Z,6.40
2019-01-17T10:00:12.850Z,5.90
2019-01-17T10:01:12.752Z,5.60
2019-01-17T10:03:05.711Z,6.40
2019-01-17T10:04:05.603Z,6.40
2019-01-17T10:06:10.542Z,4.20
2019-01-17T10:07:10.430Z,3.60
2019-01-17T10:09:14.450Z,4.10
2019-01-17T10:10:14.411Z,3.90
2019-01-17T10:12:18.363Z,4.50
2019-01-17T10:13:18.249Z,4.30
2019-01-17T10:15:23.622Z,3.60
2019-01-17T10:16:22.173Z,3.10
2019-01-17T10:18:26.180Z,2.50
2019-01-17T10:19:26.081Z,2.70
2019-01-17T10:21:30.031Z,2.60
2019-01-17T10:22:30.051Z,2.40
2019-01-17T10:24:34.000Z,2.90
2019-01-17T10:25:33.902Z,2.80
2019-01-17T10:27:37.910Z,2.90
2019-01-17T10:28:37.810Z,2.70
2019-01-17T10:30:41.832Z,2.70
2019-01-17T10:31:41.721Z,2.60
2019-01-17T10:33:45.730Z,2.60
2019-01-17T10:34:45.633Z,2.60
2019-01-17T10:36:49.643Z,3.20
2019-01-17T10:37:49.620Z,3.40
2019-01-17T10:39:53.564Z,3.30
2019-01-17T10:40:53.454Z,2.90
2019-01-17T10:42:46.423Z,2.90
2019-01-17T10:43:46.370Z,3.00
2019-01-17T10:45:50.310Z,3.20
2019-01-17T10:46:50.224Z,3.30
2019-01-17T10:48:54.219Z,3.50
2019-01-17T10:49:54.123Z,4.00
2019-01-17T10:51:58.134Z,3.40
2019-01-17T10:52:58.044Z,4.10
2019-01-17T10:55:02.043Z,5.10
2019-01-17T10:56:01.952Z,5.10
2019-01-17T10:58:05.951Z,4.70
2019-01-17T10:59:05.863Z,4.80
2019-01-17T11:01:09.864Z,5.20
2019-01-17T11:02:09.762Z,4.60
2019-01-17T11:04:13.771Z,5.00
2019-01-17T11:05:13.672Z,5.30
2019-01-17T11:07:17.681Z,5.00
2019-01-17T11:08:17.585Z,4.70
2019-01-17T11:10:21.592Z,5.00
2019-01-17T11:11:21.563Z,5.10
2019-01-17T11:13:14.441Z,5.60
2019-01-17T11:14:14.342Z,5.70
2019-01-17T11:16:18.352Z,5.80
2019-01-17T11:17:18.260Z,6.50
2019-01-17T11:19:22.313Z,5.90
2019-01-17T11:20:22.205Z,6.00
2019-01-17T11:22:26.251Z,6.50
2019-01-17T11:23:26.212Z,4.50
2019-01-17T11:25:30.281Z,3.20
2019-01-17T11:26:34.298Z,2.80
2019-01-17T11:28:34.204Z,2.80
2019-01-17T11:29:34.100Z,2.50
2019-01-17T11:31:38.152Z,2.80
2019-01-17T11:32:38.054Z,2.50
2019-01-17T11:34:42.173Z,2.40
2019-01-17T11:35:42.060Z,2.40
2019-01-17T11:37:46.281Z,2.30
2019-01-17T11:38:46.154Z,2.50
2019-01-17T11:40:50.302Z,2.50
2019-01-17T11:41:50.091Z,2.40
2019-01-17T11:43:54.220Z,2.20
2019-01-17T11:44:54.116Z,3.40
2019-01-17T11:46:58.175Z,2.40
2019-01-17T11:47:58.062Z,2.70
2019-01-17T11:50:02.039Z,2.40
2019-01-17T11:51:02.111Z,2.30
2019-01-17T11:52:54.930Z,2.70
2019-01-17T11:53:54.935Z,2.30
2019-01-17T11:55:59.111Z,2.40
2019-01-17T11:56:58.900Z,2.40
2019-01-17T11:59:02.981Z,2.90
2019-01-17T12:00:02.863Z,2.30
2019-01-17T12:02:06.860Z,2.20
2019-01-17T12:03:06.760Z,2.40
2019-01-17T12:05:11.701Z,3.20
2019-01-17T12:06:11.657Z,2.20
2019-01-17T12:08:15.793Z,2.20
2019-01-17T12:09:15.580Z,2.80
2019-01-17T12:11:19.544Z,2.50
2019-01-17T12:12:19.494Z,2.50
2019-01-17T12:14:24.180Z,2.60
2019-01-17T12:15:23.400Z,2.50
2019-01-17T12:17:27.532Z,2.70
2019-01-17T12:18:27.311Z,3.30
2019-01-17T12:20:31.555Z,3.40
2019-01-17T12:21:31.332Z,3.40
2019-01-17T12:23:24.392Z,2.50
2019-01-17T12:24:24.201Z,2.70
2019-01-17T12:26:28.403Z,3.20
2019-01-17T12:27:28.190Z,3.60
2019-01-17T12:29:32.251Z,2.60
2019-01-17T12:30:32.213Z,3.30
2019-01-17T12:32:36.441Z,3.10
2019-01-17T12:33:36.223Z,2.70
2019-01-17T12:35:40.451Z,3.10
2019-01-17T12:36:40.250Z,3.00
2019-01-17T12:38:44.290Z,2.90
2019-01-17T12:39:44.261Z,3.00
2019-01-17T12:41:48.272Z,2.90
2019-01-17T12:42:48.176Z,2.90
2019-01-17T12:44:52.189Z,4.50
2019-01-17T12:45:52.080Z,3.50
2019-01-17T12:46:52.162Z,3.50
2019-01-17T12:47:52.020Z,3.90
2019-01-17T12:48:52.062Z,4.10
2019-01-17T12:49:51.962Z,3.60
2019-01-17T12:50:51.991Z,3.50
2019-01-17T12:51:51.900Z,3.50
2019-01-17T12:52:51.900Z,3.60
2019-01-17T12:53:51.843Z,3.10
2019-01-17T12:54:51.810Z,3.40
2019-01-17T12:55:51.798Z,3.50
2019-01-17T12:56:54.157Z,3.80
2019-01-17T12:57:51.711Z,3.70
2019-01-17T12:58:51.739Z,3.30
2019-01-17T12:59:51.664Z,3.60
2019-01-17T13:00:51.621Z,5.70
2019-01-17T13:01:51.661Z,3.50
2019-01-17T13:02:51.562Z,3.40
2019-01-17T13:03:51.571Z,4.50
2019-01-17T13:04:51.500Z,4.40
2019-01-17T13:05:51.474Z,2.90
2019-01-17T13:06:51.441Z,3.00
2019-01-17T13:07:51.489Z,3.60
2019-01-17T13:08:51.381Z,4.50
2019-01-17T13:09:51.415Z,3.60
2019-01-17T13:10:51.323Z,4.40
2019-01-17T13:11:51.320Z,5.30
2019-01-17T13:12:51.284Z,4.60
2019-01-17T13:13:51.341Z,3.10
2019-01-17T13:14:51.217Z,3.30
2019-01-17T13:15:51.244Z,2.80
2019-01-17T13:16:51.251Z,2.70
2019-01-17T13:17:51.111Z,3.80
2019-01-17T13:18:51.160Z,2.90
2019-01-17T13:19:51.061Z,3.40
2019-01-17T13:20:51.072Z,3.50
2019-01-17T13:21:50.992Z,2.80
2019-01-17T13:22:50.982Z,2.70
2019-01-17T13:23:50.931Z,3.30
2019-01-17T13:24:51.000Z,3.10
2019-01-17T13:25:50.874Z,3.40
2019-01-17T13:26:51.711Z,2.70
2019-01-17T13:27:50.827Z,3.40
2019-01-17T13:28:50.822Z,2.70
2019-01-17T13:29:50.771Z,2.40
2019-01-17T13:30:50.731Z,2.90
2019-01-17T13:31:50.679Z,3.00
2019-01-17T13:32:50.752Z,3.80
2019-01-17T13:33:50.632Z,2.70
2019-01-17T13:34:50.662Z,3.60
2019-01-17T13:35:50.570Z,3.00
2019-01-17T13:36:50.571Z,2.80
2019-01-17T13:37:50.512Z,2.50
2019-01-17T13:38:50.481Z,2.60
2019-01-17T13:39:50.454Z,3.60
2019-01-17T13:40:50.490Z,2.80
2019-01-17T13:41:50.390Z,2.60
2019-01-17T13:42:50.412Z,3.30
2019-01-17T13:43:50.332Z,2.70
2019-01-17T13:44:50.306Z,4.10
2019-01-17T13:45:50.332Z,2.50
2019-01-17T13:46:50.240Z,2.30
2019-01-17T13:47:50.242Z,3.20
2019-01-17T13:48:50.184Z,2.50
2019-01-17T13:49:50.153Z,2.10
2019-01-17T13:50:50.160Z,4.20
2019-01-17T13:51:50.093Z,2.90
2019-01-17T13:52:50.174Z,4.00
2019-01-17T13:53:50.042Z,2.40
2019-01-17T13:54:51.102Z,2.50
2019-01-17T13:55:49.971Z,3.70
2019-01-17T13:56:50.002Z,3.70
2019-01-17T13:57:49.911Z,4.10
2019-01-17T13:58:49.912Z,4.40
2019-01-17T13:59:49.852Z,2.40
2019-01-17T14:00:49.821Z,2.90
2019-01-17T14:01:49.790Z,2.50
2019-01-17T14:02:49.830Z,3.00
2019-01-17T14:03:49.731Z,2.50
2019-01-17T14:04:49.744Z,3.10
2019-01-17T14:05:49.673Z,2.80
2019-01-17T14:06:49.641Z,3.40
2019-01-17T14:07:49.661Z,3.20
2019-01-17T14:08:49.583Z,3.80
2019-01-17T14:09:49.571Z,2.80
2019-01-17T14:10:49.533Z,2.70
2019-01-17T14:11:49.502Z,3.10
2019-01-17T14:12:49.485Z,3.20
2019-01-17T14:13:49.502Z,3.40
2019-01-17T14:14:49.422Z,4.60
2019-01-17T14:15:49.410Z,3.50
2019-01-17T14:16:49.355Z,3.30
2019-01-17T14:17:49.322Z,3.10
2019-01-17T14:18:49.333Z,5.40
2019-01-17T14:19:49.268Z,3.80
2019-01-17T14:20:49.341Z,3.00
2019-01-17T14:21:49.205Z,3.00
2019-01-17T14:22:49.172Z,4.10
2019-01-17T14:23:49.147Z,3.70
2019-01-17T14:24:49.272Z,5.50
2019-01-17T14:25:49.089Z,3.30
2019-01-17T14:26:56.402Z,4.10
2019-01-17T14:28:53.143Z,5.30
2019-01-17T14:29:53.053Z,4.20
2019-01-17T14:31:57.052Z,5.70
2019-01-17T14:32:56.962Z,8.30